Time;durP1;ratioP1;P1;durP2;ratioP2;P2;SDS_P1;SDS_P2;PMS_P1;PMS_P2;Temp;Humidity;BMP_temperature;BMP_pressure;BME280_temperature;BME280_humidity;BME280_pressure;Samples;Min_cycle;Max_cycle;Signal;HPM_P1;HPM_P2
2022/03/10 00:08:22;;;;;;;42.55;16.15;;;2.00;99.90;;;;;;20750499;28;19980;-78
2022/03/10 00:18:22;;;;;;;;;;;2.00;99.90;;;;;;20771138;28;20480;-78
2022/03/10 00:28:23;;;;;;;44.78;14.20;;;1.80;99.90;;;;;;20751567;28;19910;-78
2022/03/10 00:38:24;;;;;;;;;;;1.90;99.90;;;;;;20768889;28;20107;-78
2022/03/10 00:48:25;;;;;;;48.78;16.45;;;1.70;99.90;;;;;;20767768;28;19963;-79
2022/03/10 00:58:26;;;;;;;39.72;16.17;;;1.30;99.90;;;;;;20768416;28;20041;-79
2022/03/10 01:08:27;;;;;;;40.35;15.98;;;1.20;99.90;;;;;;20768176;28;20033;-78
2022/03/10 01:18:27;;;;;;;40.42;15.77;;;1.00;99.90;;;;;;20747834;28;20041;-78
2022/03/10 01:28:28;;;;;;;38.58;14.98;;;0.80;99.90;;;;;;20763999;28;20393;-79
2022/03/10 01:38:29;;;;;;;37.38;14.57;;;0.70;99.90;;;;;;20762246;28;20061;-79
2022/03/10 01:48:30;;;;;;;36.83;14.38;;;0.80;99.90;;;;;;20836815;22;20474;-74
2022/03/10 01:58:31;;;;;;;37.33;14.95;;;0.90;99.90;;;;;;20996082;28;20390;-73
2022/03/10 02:18:52;;;;;;;45.65;18.17;;;1.30;99.90;;;;;;20993714;28;20512;-73
2022/03/10 02:28:53;;;;;;;46.40;16.95;;;1.20;99.90;;;;;;20975958;28;20123;-73
2022/03/10 02:38:54;;;;;;;44.67;18.50;;;1.00;99.90;;;;;;20992854;28;20032;-73
2022/03/10 02:48:55;;;;;;;44.15;19.38;;;0.80;99.90;;;;;;21010211;28;20040;-73
2022/03/10 02:58:56;;;;;;;49.28;18.55;;;0.60;99.90;;;;;;20991959;28;20036;-73
2022/03/10 03:08:56;;;;;;;47.35;17.60;;;0.60;99.90;;;;;;20991703;28;20060;-73
2022/03/10 03:18:57;;;;;;;39.85;16.60;;;0.50;99.90;;;;;;20990732;28;20364;-73
2022/03/10 03:28:58;;;;;;;52.17;19.77;;;0.40;99.90;;;;;;20990564;28;20225;-73
2022/03/10 03:38:59;;;;;;;47.17;18.00;;;0.30;99.90;;;;;;21001857;28;20090;-73
2022/03/10 03:48:59;;;;;;;50.13;18.67;;;0.20;99.90;;;;;;20989848;28;20032;-73
2022/03/10 03:59:00;;;;;;;44.00;17.45;;;0.10;99.90;;;;;;20997309;28;20111;-73
2022/03/10 04:09:01;;;;;;;39.72;17.13;;;0.10;99.90;;;;;;21006315;28;20032;-73
2022/03/10 04:19:02;;;;;;;44.05;17.17;;;0.10;99.90;;;;;;20986315;28;20621;-74
2022/03/10 04:29:03;;;;;;;54.50;20.52;;;0.00;99.90;;;;;;20987999;28;20049;-73
2022/03/10 04:39:04;;;;;;;52.10;19.38;;;-0.10;99.90;;;;;;20987488;28;20376;-74
2022/03/10 04:49:05;;;;;;;53.78;20.83;;;-0.20;99.90;;;;;;21000948;28;20406;-74
2022/03/10 04:59:06;;;;;;;47.15;18.80;;;-0.30;99.90;;;;;;21001304;28;20123;-74
2022/03/10 05:09:07;;;;;;;52.80;19.20;;;-0.30;99.90;;;;;;21000023;28;20068;-74
2022/03/10 05:19:08;;;;;;;50.70;18.90;;;-0.30;99.90;;;;;;20999253;28;20111;-74
2022/03/10 05:29:11;;;;;;;52.42;17.85;;;-0.40;99.90;;;;;;21009187;28;20036;-75
2022/03/10 05:39:12;;;;;;;46.28;18.58;;;-0.50;99.90;;;;;;21027783;28;20035;-75
2022/03/10 05:49:12;;;;;;;46.33;18.98;;;-0.50;99.90;;;;;;20979251;28;20036;-75
2022/03/10 05:59:13;;;;;;;48.25;18.63;;;-0.70;99.90;;;;;;20995136;28;20082;-74
2022/03/10 06:09:14;;;;;;;47.08;17.55;;;-0.70;99.90;;;;;;20995544;28;20036;-75
2022/03/10 06:19:16;;;;;;;48.53;17.35;;;-0.60;99.90;;;;;;20994680;28;20075;-75
2022/03/10 06:29:17;;;;;;;45.80;17.15;;;-0.50;99.90;;;;;;20994033;28;20049;-75
2022/03/10 06:39:18;;;;;;;51.58;19.55;;;-0.20;99.90;;;;;;20992778;28;20036;-73
2022/03/10 06:49:20;;;;;;;48.72;16.67;;;0.20;99.90;;;;;;20990528;28;20042;-73
2022/03/10 06:59:21;;;;;;;41.17;17.13;;;0.80;99.90;;;;;;21031874;28;20063;-73
2022/03/10 07:09:22;;;;;;;49.05;16.83;;;1.40;99.90;;;;;;21031025;28;20027;-74
2022/03/10 07:19:23;;;;;;;44.22;16.73;;;1.90;99.90;;;;;;21030932;28;20111;-74
2022/03/10 07:29:24;;;;;;;50.78;18.50;;;2.60;99.90;;;;;;21030408;28;20115;-73
2022/03/10 07:39:24;;;;;;;;;;;3.00;99.90;;;;;;21030933;28;20020;-72
2022/03/10 07:49:25;;;;;;;43.60;17.43;;;3.10;99.90;;;;;;21003987;22;19925;-75
2022/03/10 07:59:26;;;;;;;36.17;16.52;;;4.00;99.90;;;;;;20865632;28;20303;-75
2022/03/10 08:09:27;;;;;;;40.40;17.90;;;4.50;99.90;;;;;;20901518;28;20040;-76
2022/03/10 08:19:28;;;;;;;41.10;17.27;;;4.70;99.90;;;;;;20888892;28;20087;-76
2022/03/10 08:29:28;;;;;;;42.53;16.80;;;5.20;99.90;;;;;;20886825;28;20071;-76
2022/03/10 08:39:29;;;;;;;41.70;16.80;;;6.10;99.90;;;;;;20919875;28;20124;-76
2022/03/10 08:49:30;;;;;;;35.57;15.23;;;6.80;99.90;;;;;;20919251;28;20602;-77
2022/03/10 08:59:31;;;;;;;37.30;17.33;;;9.40;99.90;;;;;;20918494;28;20043;-77
2022/03/10 09:09:32;;;;;;;29.83;14.33;;;10.70;99.90;;;;;;20924310;28;20033;-76
2022/03/10 09:19:33;;;;;;;34.43;14.93;;;10.70;99.90;;;;;;20909180;28;20529;-76
2022/03/10 09:29:33;;;;;;;34.37;15.63;;;10.20;99.90;;;;;;20906378;28;20056;-77
2022/03/10 09:39:35;;;;;;;32.90;15.25;;;9.70;99.90;;;;;;20906517;28;20494;-77
2022/03/10 09:49:36;;;;;;;35.27;16.53;;;10.10;99.90;;;;;;20898222;28;20158;-79
2022/03/10 10:00:08;;;;;;;41.23;15.20;;;11.40;99.90;;;;;;20931849;28;20063;-77
2022/03/10 10:10:10;;;;;;;44.75;16.27;;;12.50;99.90;;;;;;20892229;28;20041;-79
2022/03/10 10:20:11;;;;;;;36.15;16.23;;;11.90;99.90;;;;;;20895522;28;20029;-79
2022/03/10 10:30:12;;;;;;;36.77;16.13;;;12.20;99.90;;;;;;20929228;28;20479;-79
2022/03/10 10:40:20;;;;;;;36.47;17.60;;;12.10;99.90;;;;;;20925073;28;20040;-78
2022/03/10 10:50:21;;;;;;;35.58;16.55;;;13.70;99.90;;;;;;20924674;28;20036;-79
2022/03/10 11:00:22;;;;;;;29.33;16.13;;;15.80;95.90;;;;;;20923759;28;20040;-78
2022/03/10 11:10:23;;;;;;;32.67;15.73;;;16.40;93.40;;;;;;20924725;28;20771;-79
2022/03/10 11:20:25;;;;;;;26.90;14.10;;;16.00;95.20;;;;;;20915940;28;20032;-77
2022/03/10 11:30:28;;;;;;;29.30;14.00;;;15.50;93.60;;;;;;20922719;28;20042;-80
2022/03/10 11:40:52;;;;;;;27.88;14.65;;;16.30;92.10;;;;;;20924164;28;20029;-80
2022/03/10 11:50:54;;;;;;;26.90;13.38;;;16.00;91.50;;;;;;20911932;28;20037;-80
2022/03/10 12:00:57;;;;;;;27.98;13.85;;;17.30;89.90;;;;;;20942978;28;20025;-78
2022/03/10 12:10:59;;;;;;;28.35;13.73;;;15.30;91.30;;;;;;20942504;28;20531;-79
2022/03/10 12:21:21;;;;;;;28.25;13.77;;;17.40;90.10;;;;;;20943354;28;20025;-79
2022/03/10 12:31:27;;;;;;;27.63;13.35;;;17.70;82.90;;;;;;20944690;28;20032;-79
2022/03/10 12:41:42;;;;;;;30.70;12.95;;;16.80;84.90;;;;;;20942975;28;20025;-78
2022/03/10 12:51:43;;;;;;;22.67;11.07;;;18.10;77.20;;;;;;20941314;28;20037;-79
2022/03/10 13:01:44;;;;;;;21.67;11.00;;;19.10;75.60;;;;;;20933153;28;20442;-79
2022/03/10 13:11:45;;;;;;;13.40;8.10;;;18.80;75.80;;;;;;20934946;28;20036;-77
2022/03/10 13:21:50;;;;;;;17.30;9.50;;;18.50;73.50;;;;;;20915627;28;20033;-77
2022/03/10 13:31:51;;;;;;;15.68;8.48;;;18.60;70.50;;;;;;20936238;28;20083;-77
2022/03/10 13:41:52;;;;;;;21.03;8.70;;;18.90;67.30;;;;;;20934173;28;20033;-76
2022/03/10 13:51:55;;;;;;;18.77;8.77;;;18.80;67.80;;;;;;21015557;22;20044;-73
2022/03/10 14:01:56;;;;;;;18.70;8.73;;;18.80;68.50;;;;;;21080885;28;20032;-73
2022/03/10 14:12:17;;;;;;;13.47;7.60;;;18.60;69.70;;;;;;21061747;28;20040;-73
2022/03/10 14:22:20;;;;;;;14.45;7.70;;;18.20;70.50;;;;;;21062118;28;20398;-73
2022/03/10 14:32:21;;;;;;;16.63;8.45;;;19.30;66.10;;;;;;21051346;28;20153;-73
2022/03/10 14:42:28;;;;;;;17.70;6.88;;;18.90;65.20;;;;;;21063288;27;20388;-74
2022/03/10 14:52:29;;;;;;;17.40;7.30;;;18.50;65.00;;;;;;21062679;28;20056;-73
2022/03/10 15:02:30;;;;;;;15.13;7.10;;;18.10;66.50;;;;;;21063705;28;20051;-74
2022/03/10 15:12:31;;;;;;;14.90;7.33;;;19.00;63.50;;;;;;21060879;28;20063;-74
2022/03/10 15:22:32;;;;;;;14.13;7.03;;;18.30;62.60;;;;;;21060239;28;20109;-75
2022/03/10 15:32:33;;;;;;;14.30;7.30;;;18.30;64.20;;;;;;21059202;28;20025;-75
2022/03/10 15:42:34;;;;;;;15.53;7.30;;;18.10;63.10;;;;;;21058532;28;20115;-75
2022/03/10 15:52:35;;;;;;;18.17;6.47;;;17.40;64.50;;;;;;21009210;28;20025;-74
2022/03/10 16:02:37;;;;;;;11.80;6.57;;;17.50;61.00;;;;;;21001912;28;20503;-74
2022/03/10 16:12:40;;;;;;;11.90;6.00;;;16.80;60.80;;;;;;21000810;28;20021;-76
2022/03/10 16:22:42;;;;;;;16.88;7.30;;;15.60;63.10;;;;;;21003524;28;20036;-76
2022/03/10 16:32:45;;;;;;;15.27;7.88;;;15.50;63.00;;;;;;20997332;28;20447;-76
2022/03/10 16:42:49;;;;;;;14.55;8.23;;;15.10;67.50;;;;;;20998086;28;20044;-77
2022/03/10 16:52:50;;;;;;;18.77;8.82;;;14.30;68.10;;;;;;20979343;28;20036;-75
2022/03/10 17:02:51;;;;;;;15.20;7.50;;;13.90;71.50;;;;;;20996257;28;20459;-75
2022/03/10 17:12:52;;;;;;;13.53;6.77;;;12.80;77.70;;;;;;20993859;28;20470;-75
2022/03/10 17:22:52;;;;;;;15.27;6.73;;;12.00;77.30;;;;;;20994380;28;20036;-74
2022/03/10 17:32:53;;;;;;;20.27;8.07;;;10.70;82.40;;;;;;20993812;28;20394;-78
2022/03/10 17:42:54;;;;;;;15.87;7.00;;;10.20;89.60;;;;;;20993243;28;20078;-79
2022/03/10 17:52:59;;;;;;;22.77;7.57;;;9.10;88.90;;;;;;20992464;28;20423;-78
2022/03/10 18:03:00;;;;;;;17.58;7.53;;;8.80;90.20;;;;;;20990399;28;20059;-77
2022/03/10 18:13:03;;;;;;;18.30;8.27;;;8.50;90.90;;;;;;20980476;28;20416;-77
2022/03/10 18:23:04;;;;;;;14.45;7.55;;;7.70;92.20;;;;;;20932776;28;20076;-78
2022/03/10 18:33:04;;;;;;;14.00;6.80;;;6.60;94.60;;;;;;20979178;28;20025;-78
2022/03/10 18:43:05;;;;;;;26.43;7.57;;;6.50;95.10;;;;;;20962591;28;20073;-76
2022/03/10 18:53:06;;;;;;;16.47;6.93;;;7.40;92.70;;;;;;20989488;28;20364;-78
2022/03/10 19:03:08;;;;;;;16.40;7.30;;;7.50;92.80;;;;;;20988987;28;20090;-78
2022/03/10 19:13:09;;;;;;;16.33;7.20;;;7.60;92.40;;;;;;20988709;28;20098;-79
2022/03/10 19:23:10;;;;;;;18.57;8.80;;;7.50;92.60;;;;;;20949964;28;20056;-79
2022/03/10 19:33:10;;;;;;;12.63;5.93;;;7.30;93.80;;;;;;20910388;28;20017;-78
2022/03/10 19:43:11;;;;;;;11.63;6.03;;;7.20;93.30;;;;;;20917697;28;20029;-77
2022/03/10 19:53:12;;;;;;;12.70;5.90;;;7.10;93.70;;;;;;20897277;28;20087;-77
2022/03/10 20:03:13;;;;;;;21.23;5.57;;;6.90;94.00;;;;;;20897034;28;20044;-79
2022/03/10 20:13:16;;;;;;;11.97;5.53;;;6.60;94.60;;;;;;20897222;28;20349;-79
2022/03/10 20:23:18;;;;;;;15.02;6.78;;;6.40;95.00;;;;;;20896428;28;20056;-77
2022/03/10 20:33:20;;;;;;;17.35;6.10;;;6.30;95.40;;;;;;20895839;28;20028;-77
2022/03/10 20:43:21;;;;;;;10.13;5.25;;;6.00;96.00;;;;;;20895219;28;20033;-77
2022/03/10 20:53:22;;;;;;;10.77;4.88;;;6.00;96.30;;;;;;20913213;22;20444;-75
2022/03/10 21:03:23;;;;;;;11.03;5.07;;;5.80;96.50;;;;;;20896120;28;20182;-75
2022/03/10 21:13:24;;;;;;;;;;;5.80;96.50;;;;;;20894886;28;20060;-75
2022/03/10 21:23:25;;;;;;;8.82;4.63;;;5.60;96.90;;;;;;20904497;28;20007;-76
2022/03/10 21:33:30;;;;;;;13.70;4.83;;;5.50;97.30;;;;;;20891212;28;20033;-75
2022/03/10 21:43:30;;;;;;;10.07;5.13;;;5.60;96.80;;;;;;20902599;28;20086;-75
2022/03/10 21:53:32;;;;;;;9.80;5.03;;;5.30;97.50;;;;;;20909275;28;20033;-74
2022/03/10 22:03:33;;;;;;;7.45;4.50;;;5.30;97.20;;;;;;20912173;28;20029;-77
2022/03/10 22:13:34;;;;;;;8.33;4.30;;;5.20;97.30;;;;;;20914549;28;20025;-76
2022/03/10 22:23:34;;;;;;;9.50;4.57;;;5.10;97.80;;;;;;20914247;28;20337;-75
2022/03/10 22:33:35;;;;;;;13.83;5.00;;;4.90;97.90;;;;;;20915542;28;20065;-76
2022/03/10 22:43:36;;;;;;;8.13;4.13;;;4.80;98.30;;;;;;20915077;28;20074;-75
2022/03/10 23:03:56;;;;;;;11.80;3.95;;;4.60;99.00;;;;;;20928220;28;20430;-76
2022/03/10 23:13:57;;;;;;;8.60;4.17;;;4.40;99.40;;;;;;20933535;28;20029;-76
2022/03/10 23:23:57;;;;;;;12.03;4.70;;;4.30;99.90;;;;;;20935264;28;20283;-75
2022/03/10 23:33:58;;;;;;;12.43;4.53;;;4.20;99.90;;;;;;20935921;28;20037;-76
2022/03/10 23:43:59;;;;;;;9.00;4.27;;;4.10;99.90;;;;;;20928149;28;20033;-76
2022/03/10 23:54:00;;;;;;;9.00;5.20;;;4.00;99.90;;;;;;20925403;28;20291;-76
